(°C)
14°
13°
13°
12°
12°
11°
11°
(°C)
14°
13°
12°
12°
11°
11°
11°
SSW
WSW
O
WSW
WSW
SW
SW
(km/h)
2-5
2-5
2-4
3-3
3-4
3-4
3-4
(mm)
0
0
0
0
0
0
0
(%)
0
0
0
0
0
0
0

Elevazione del sole

/ -18.4°
sun-icon
UV 5
05:25
20:57
Luna calante (315°)
03:48
16:48

METAR per Innsbruck (LOWI)

Ora Condizioni Temperatura/
Punto di rugiada
Vento Visibilità Meteo Nuvole Pressione Cambiamento Grezzo
VFR 15°C / 11°C variable 2kt >10km - Few Clouds 6000ft 1024 - LOWI 262050Z AUTO VRB02KT 9999 FEW060 15/11 Q1024
VFR 16°C / 11°C variable 1kt >10km - Few Clouds 5000ft 1024 No Significant change LOWI 262020Z VRB01KT 9999 FEW050 16/11 Q1024 NOSIG
VFR 17°C / 11°C variable 1kt >10km - Few Clouds 5000ft 1023 No Significant change LOWI 261950Z VRB01KT 9999 FEW050 17/11 Q1023 NOSIG
VFR 18°C / 11°C variable 2kt >10km - Few Clouds 5000ft 1023 No Significant change LOWI 261920Z VRB02KT 9999 FEW050 18/11 Q1023 NOSIG
VFR 18°C / 12°C variable 2kt >10km - Few Clouds 5000ft 1023 No Significant change LOWI 261850Z VRB02KT 9999 FEW050 18/12 Q1023 NOSIG
VFR 20°C / 11°C 100º variable 050º to 120º 7kt >10km - Few Clouds 5000ft 1022 No Significant change LOWI 261820Z 10007KT 050V120 9999 FEW050 20/11 Q1022 NOSIG
VFR 20°C / 12°C 50º variable 020º to 110º 5kt >10km - Few Clouds 6000ft 1022 No Significant change LOWI 261750Z 05005KT 020V110 9999 FEW060 20/12 Q1022 NOSIG
VFR 21°C / 10°C 90º 10kt >10km - Few Clouds 6000ft 1022 No Significant change LOWI 261720Z 09010KT 9999 FEW060 21/10 Q1022 NOSIG
VFR 21°C / 11°C 100º variable 070º to 130º 10kt >10km - Few Clouds 6000ft 1022 No Significant change LOWI 261650Z 10010KT 070V130 9999 FEW060 21/11 Q1022 NOSIG
VFR 22°C / 11°C 90º 11kt >10km - Few Clouds 6000ft 1022 No Significant change LOWI 261620Z 09011KT 9999 FEW060 22/11 Q1022 NOSIG
VFR 22°C / 11°C 90º 12kt >10km - Few Clouds 6000ft 1022 No Significant change LOWI 261550Z 09012KT 9999 FEW060 22/11 Q1022 NOSIG
VFR 22°C / 11°C 90º 14kt >10km - Few Clouds 6000ft
Scattered Clouds 9000ft
1022 No Significant change LOWI 261520Z 09014KT 9999 FEW060 SCT090 22/11 Q1022 NOSIG
VFR 22°C / 11°C 80º 13kt >10km - Few Clouds 6000ft
Scattered Clouds 8000ft
1021 No Significant change LOWI 261450Z 08013KT 9999 FEW060 SCT080 22/11 Q1021 NOSIG
VFR 23°C / 11°C 90º variable 040º to 120º 11kt >10km - Few Clouds 6000ft 1021 No Significant change LOWI 261420Z 09011KT 040V120 9999 FEW060 23/11 Q1021 NOSIG
VFR 23°C / 11°C 80º variable 030º to 130º 8kt >10km - Few Clouds 6000ft 1021 No Significant change LOWI 261350Z 08008KT 030V130 9999 FEW060 23/11 Q1021 NOSIG
VFR 23°C / 12°C 90º variable 020º to 140º 8kt >10km - Few Clouds 7000ft 1021 No Significant change LOWI 261320Z 09008KT 020V140 9999 FEW070 23/12 Q1021 NOSIG
VFR 22°C / 11°C 40º variable 360º to 090º 7kt >10km - Few Clouds 7000ft 1022 No Significant change LOWI 261250Z 04007KT 360V090 9999 FEW070 22/11 Q1022 NOSIG
VFR 22°C / 11°C variable 4kt >10km - Scattered Clouds 6500ft 1022 No Significant change LOWI 261220Z VRB04KT 9999 SCT065 22/11 Q1022 NOSIG
VFR 22°C / 12°C variable 4kt >10km - Scattered Clouds 6000ft 1022 No Significant change LOWI 261150Z VRB04KT 9999 SCT060 22/12 Q1022 NOSIG
VFR 21°C / 11°C variable 4kt >10km - Scattered Clouds 5000ft 1023 No Significant change LOWI 261120Z VRB04KT 9999 SCT050 21/11 Q1023 NOSIG
VFR 20°C / 10°C 120º variable 070º to 180º 7kt >10km - Few Clouds 4500ft
Scattered Clouds 6500ft
1023 No Significant change LOWI 261050Z 12007KT 070V180 9999 FEW045 SCT065 20/10 Q1023 NOSIG
VFR 19°C / 10°C variable 3kt >10km - Few Clouds 4000ft
Scattered Clouds 6500ft
1024 No Significant change LOWI 261020Z VRB03KT 9999 FEW040 SCT065 19/10 Q1024 NOSIG
VFR 18°C / 11°C variable 4kt >10km - Few Clouds 3000ft
Scattered Clouds 6000ft
1024 No Significant change LOWI 260950Z VRB04KT 9999 FEW030 SCT060 18/11 Q1024 NOSIG
VFR 18°C / 11°C variable 3kt >10km - Few Clouds 2000ft
Broken Clouds 6500ft
1024 No Significant change LOWI 260920Z VRB03KT 9999 FEW020 BKN065 18/11 Q1024 NOSIG

VFR

15°C / 11°C

[Più]
Vento variable 2kt
Visibilità >10km
Meteo -
Nuvole Few Clouds 6000ft
Pressione 1024
Cambiamento -
Grezzo LOWI 262050Z AUTO VRB02KT 9999 FEW060 15/11 Q1024

VFR

16°C / 11°C

[Più]
Vento variable 1kt
Visibilità >10km
Meteo -
Nuvole Few Clouds 5000ft
Pressione 1024
Cambiamento No Significant change
Grezzo LOWI 262020Z VRB01KT 9999 FEW050 16/11 Q1024 NOSIG

VFR

17°C / 11°C

[Più]
Vento variable 1kt
Visibilità >10km
Meteo -
Nuvole Few Clouds 5000ft
Pressione 1023
Cambiamento No Significant change
Grezzo LOWI 261950Z VRB01KT 9999 FEW050 17/11 Q1023 NOSIG

VFR

18°C / 11°C

[Più]
Vento variable 2kt
Visibilità >10km
Meteo -
Nuvole Few Clouds 5000ft
Pressione 1023
Cambiamento No Significant change
Grezzo LOWI 261920Z VRB02KT 9999 FEW050 18/11 Q1023 NOSIG

VFR

18°C / 12°C

[Più]
Vento variable 2kt
Visibilità >10km
Meteo -
Nuvole Few Clouds 5000ft
Pressione 1023
Cambiamento No Significant change
Grezzo LOWI 261850Z VRB02KT 9999 FEW050 18/12 Q1023 NOSIG

VFR

20°C / 11°C

[Più]
Vento 100º variable 050º to 120º 7kt
Visibilità >10km
Meteo -
Nuvole Few Clouds 5000ft
Pressione 1022
Cambiamento No Significant change
Grezzo LOWI 261820Z 10007KT 050V120 9999 FEW050 20/11 Q1022 NOSIG

VFR

20°C / 12°C

[Più]
Vento 50º variable 020º to 110º 5kt
Visibilità >10km
Meteo -
Nuvole Few Clouds 6000ft
Pressione 1022
Cambiamento No Significant change
Grezzo LOWI 261750Z 05005KT 020V110 9999 FEW060 20/12 Q1022 NOSIG

VFR

21°C / 10°C

[Più]
Vento 90º 10kt
Visibilità >10km
Meteo -
Nuvole Few Clouds 6000ft
Pressione 1022
Cambiamento No Significant change
Grezzo LOWI 261720Z 09010KT 9999 FEW060 21/10 Q1022 NOSIG

VFR

21°C / 11°C

[Più]
Vento 100º variable 070º to 130º 10kt
Visibilità >10km
Meteo -
Nuvole Few Clouds 6000ft
Pressione 1022
Cambiamento No Significant change
Grezzo LOWI 261650Z 10010KT 070V130 9999 FEW060 21/11 Q1022 NOSIG

VFR

22°C / 11°C

[Più]
Vento 90º 11kt
Visibilità >10km
Meteo -
Nuvole Few Clouds 6000ft
Pressione 1022
Cambiamento No Significant change
Grezzo LOWI 261620Z 09011KT 9999 FEW060 22/11 Q1022 NOSIG

VFR

22°C / 11°C

[Più]
Vento 90º 12kt
Visibilità >10km
Meteo -
Nuvole Few Clouds 6000ft
Pressione 1022
Cambiamento No Significant change
Grezzo LOWI 261550Z 09012KT 9999 FEW060 22/11 Q1022 NOSIG

VFR

22°C / 11°C

[Più]
Vento 90º 14kt
Visibilità >10km
Meteo -
Nuvole Few Clouds 6000ft
Scattered Clouds 9000ft
Pressione 1022
Cambiamento No Significant change
Grezzo LOWI 261520Z 09014KT 9999 FEW060 SCT090 22/11 Q1022 NOSIG

VFR

22°C / 11°C

[Più]
Vento 80º 13kt
Visibilità >10km
Meteo -
Nuvole Few Clouds 6000ft
Scattered Clouds 8000ft
Pressione 1021
Cambiamento No Significant change
Grezzo LOWI 261450Z 08013KT 9999 FEW060 SCT080 22/11 Q1021 NOSIG

VFR

23°C / 11°C

[Più]
Vento 90º variable 040º to 120º 11kt
Visibilità >10km
Meteo -
Nuvole Few Clouds 6000ft
Pressione 1021
Cambiamento No Significant change
Grezzo LOWI 261420Z 09011KT 040V120 9999 FEW060 23/11 Q1021 NOSIG

VFR

23°C / 11°C

[Più]
Vento 80º variable 030º to 130º 8kt
Visibilità >10km
Meteo -
Nuvole Few Clouds 6000ft
Pressione 1021
Cambiamento No Significant change
Grezzo LOWI 261350Z 08008KT 030V130 9999 FEW060 23/11 Q1021 NOSIG

VFR

23°C / 12°C

[Più]
Vento 90º variable 020º to 140º 8kt
Visibilità >10km
Meteo -
Nuvole Few Clouds 7000ft
Pressione 1021
Cambiamento No Significant change
Grezzo LOWI 261320Z 09008KT 020V140 9999 FEW070 23/12 Q1021 NOSIG

VFR

22°C / 11°C

[Più]
Vento 40º variable 360º to 090º 7kt
Visibilità >10km
Meteo -
Nuvole Few Clouds 7000ft
Pressione 1022
Cambiamento No Significant change
Grezzo LOWI 261250Z 04007KT 360V090 9999 FEW070 22/11 Q1022 NOSIG

VFR

22°C / 11°C

[Più]
Vento variable 4kt
Visibilità >10km
Meteo -
Nuvole Scattered Clouds 6500ft
Pressione 1022
Cambiamento No Significant change
Grezzo LOWI 261220Z VRB04KT 9999 SCT065 22/11 Q1022 NOSIG

VFR

22°C / 12°C

[Più]
Vento variable 4kt
Visibilità >10km
Meteo -
Nuvole Scattered Clouds 6000ft
Pressione 1022
Cambiamento No Significant change
Grezzo LOWI 261150Z VRB04KT 9999 SCT060 22/12 Q1022 NOSIG

VFR

21°C / 11°C

[Più]
Vento variable 4kt
Visibilità >10km
Meteo -
Nuvole Scattered Clouds 5000ft
Pressione 1023
Cambiamento No Significant change
Grezzo LOWI 261120Z VRB04KT 9999 SCT050 21/11 Q1023 NOSIG

VFR

20°C / 10°C

[Più]
Vento 120º variable 070º to 180º 7kt
Visibilità >10km
Meteo -
Nuvole Few Clouds 4500ft
Scattered Clouds 6500ft
Pressione 1023
Cambiamento No Significant change
Grezzo LOWI 261050Z 12007KT 070V180 9999 FEW045 SCT065 20/10 Q1023 NOSIG

VFR

19°C / 10°C

[Più]
Vento variable 3kt
Visibilità >10km
Meteo -
Nuvole Few Clouds 4000ft
Scattered Clouds 6500ft
Pressione 1024
Cambiamento No Significant change
Grezzo LOWI 261020Z VRB03KT 9999 FEW040 SCT065 19/10 Q1024 NOSIG

VFR

18°C / 11°C

[Più]
Vento variable 4kt
Visibilità >10km
Meteo -
Nuvole Few Clouds 3000ft
Scattered Clouds 6000ft
Pressione 1024
Cambiamento No Significant change
Grezzo LOWI 260950Z VRB04KT 9999 FEW030 SCT060 18/11 Q1024 NOSIG

VFR

18°C / 11°C

[Più]
Vento variable 3kt
Visibilità >10km
Meteo -
Nuvole Few Clouds 2000ft
Broken Clouds 6500ft
Pressione 1024
Cambiamento No Significant change
Grezzo LOWI 260920Z VRB03KT 9999 FEW020 BKN065 18/11 Q1024 NOSIG

TAF per Innsbruck (LOWI)

From till


Maximum Temperature 26ºC on . Minimum Temperature 11ºC on .
From till Wind 90º 8kt. Visibility 10km or more. Few Clouds 4000ft. Scattered Clouds 7000ft.
Becoming from till Wind 270º 4kt. Visibility 10km or more. Few Clouds 4000ft. Scattered Clouds 7000ft.
Becoming from till Wind 90º 8kt. Visibility 10km or more. Few Clouds 4000ft. Scattered Clouds 7000ft.

Grezzo: TAF LOWI 261715Z 2618/2718 09008KT 9999 FEW040 SCT070 TX26/2714Z TN11/2704Z BECMG 2618/2620 27004KT BECMG 2708/2710 09008KT

Radar per Innsbruck

Pioviggine
Lieve
Moderato
Forte
Molto forte
Grandine

Il segnaposto è situato a Innsbruck. Questa animazione mostra il radar delle precipitazioni per l'ultima ora, nonché una previsione 2h. Una pioviggine o una leggera caduta di neve potrebbero essere invisibili per il radar. L'intensità delle precipitazioni è codificata a colori, dal blu chiaro all'arancione.
Copyright 2022 Deutscher Wetterdienst / meteoblue.

Tempo in atto per Innsbruck: immagine satellitare e pioggia, Austria

Il segnaposto è situato a Innsbruck. [Più]

L'immagine satellitare in tempo reale combina la luce visibile durante il giorno con la radiazione infrarossa durante la notte. Di notte l'immagine non è scura poiché i raggi infrarossi possono rilevare differenze di temperatura. Purtroppo, le nuvole basse e la nebbia sono difficili da distinguere dalla temperatura del suolo e possono pertanto essere quasi invisibili durante la notte. Le immagini satellitari Meteosat per l'Europa vengono aggiornate in tempo reale ogni 5 minuti. Le immagini GOES-16 / GOES-17 (Nord e Sud America) e Himawari (Asia) vengono aggiornate ogni 10 minuti.

Le precipitazioni sono stimate da radar e satellite. I calcoli delle precipitazioni dai satelliti sono meno accurate di notte che durante il giorno. Le croci arancioni identificano i fulmini caduti (in Europa).

Copyright 2022 EUMETSAT / meteoblue. Fulminazioni fornite da nowcast.

Tornare su